createdAt,value
2023-02-28T06:02:12.898Z,2.67
2023-02-28T06:04:39.759Z,3.15
2023-02-28T06:07:06.235Z,4.05
2023-02-28T06:09:33.216Z,3.60
2023-02-28T06:12:06.475Z,4.55
2023-02-28T06:14:34.862Z,4.38
2023-02-28T06:17:01.944Z,4.18
2023-02-28T06:19:31.191Z,4.10
2023-02-28T06:21:58.276Z,3.33
2023-02-28T06:24:29.199Z,3.97
2023-02-28T06:26:56.150Z,4.68
2023-02-28T06:29:23.400Z,4.50
2023-02-28T06:31:49.996Z,4.30
2023-02-28T06:34:17.697Z,4.90
2023-02-28T06:36:44.657Z,4.45
2023-02-28T06:39:11.815Z,5.03
2023-02-28T06:41:53.514Z,6.63
2023-02-28T06:44:23.281Z,6.30
2023-02-28T06:46:50.225Z,5.18
2023-02-28T06:49:17.769Z,3.65
2023-02-28T06:51:48.683Z,3.72
2023-02-28T06:54:16.804Z,3.17
2023-02-28T06:56:43.289Z,2.83
2023-02-28T06:59:10.579Z,3.35
2023-02-28T07:01:37.238Z,3.10
2023-02-28T07:04:06.798Z,3.28
2023-02-28T07:06:33.698Z,2.95
2023-02-28T07:09:01.369Z,2.80
2023-02-28T07:11:29.409Z,3.28
2023-02-28T07:13:57.794Z,2.75
2023-02-28T07:16:25.816Z,3.08
2023-02-28T07:18:56.448Z,3.03
2023-02-28T07:21:23.324Z,2.45
2023-02-28T07:23:50.877Z,2.33
2023-02-28T07:26:19.427Z,2.53
2023-02-28T07:28:48.647Z,3.90
2023-02-28T07:31:16.863Z,3.90
2023-02-28T07:33:44.542Z,5.40
2023-02-28T07:36:16.066Z,5.30
2023-02-28T07:38:48.136Z,5.32
2023-02-28T07:41:16.837Z,4.90
2023-02-28T07:43:45.833Z,5.07
2023-02-28T07:46:15.957Z,3.60
2023-02-28T07:48:43.892Z,3.38
2023-02-28T07:51:10.887Z,2.80
2023-02-28T07:53:38.029Z,2.75
2023-02-28T07:56:05.210Z,2.22
2023-02-28T07:58:32.817Z,2.15
2023-02-28T08:01:09.669Z,1.60
2023-02-28T08:03:37.558Z,1.50
2023-02-28T08:06:09.165Z,1.90
2023-02-28T08:08:36.567Z,2.17
2023-02-28T08:11:04.318Z,2.08
2023-02-28T08:13:31.818Z,1.55
2023-02-28T08:15:58.382Z,1.70
2023-02-28T08:18:25.590Z,1.75
2023-02-28T08:20:52.400Z,2.25
2023-02-28T08:23:19.920Z,1.50
2023-02-28T08:25:54.202Z,1.95
2023-02-28T08:28:21.347Z,1.63
2023-02-28T08:30:47.837Z,1.52
2023-02-28T08:33:14.950Z,1.88
2023-02-28T08:35:41.476Z,1.88
2023-02-28T08:38:08.549Z,1.52
2023-02-28T08:40:35.093Z,1.50
2023-02-28T08:43:02.232Z,1.80
2023-02-28T08:45:28.733Z,1.50
2023-02-28T08:47:56.702Z,1.80
2023-02-28T08:50:23.650Z,1.70
2023-02-28T08:52:51.964Z,1.90
2023-02-28T08:55:18.519Z,1.73
2023-02-28T08:57:45.755Z,1.55
2023-02-28T09:00:14.564Z,1.60
2023-02-28T09:02:43.968Z,1.58
2023-02-28T09:05:10.620Z,1.45
2023-02-28T09:07:37.892Z,1.58
2023-02-28T09:10:04.932Z,1.65
2023-02-28T09:12:35.972Z,1.27
2023-02-28T09:15:03.080Z,1.83
2023-02-28T09:17:30.807Z,2.05
2023-02-28T09:19:58.439Z,2.22
2023-02-28T09:22:25.722Z,1.80
2023-02-28T09:24:52.186Z,1.90
2023-02-28T09:27:19.282Z,1.40
2023-02-28T09:29:45.764Z,1.90
2023-02-28T09:32:13.208Z,2.03
2023-02-28T09:34:39.804Z,2.53
2023-02-28T09:37:07.148Z,2.67
2023-02-28T09:39:33.779Z,2.40
2023-02-28T09:42:03.568Z,2.78
2023-02-28T09:44:37.961Z,2.15
2023-02-28T09:47:27.023Z,2.63
2023-02-28T09:49:54.064Z,2.63
2023-02-28T09:52:29.304Z,2.42
2023-02-28T09:54:55.918Z,2.80
2023-02-28T09:57:52.983Z,3.53
2023-02-28T10:00:25.646Z,5.05
2023-02-28T10:03:05.380Z,3.50
2023-02-28T10:05:54.468Z,3.58
2023-02-28T10:08:28.955Z,4.55
2023-02-28T10:11:01.467Z,4.82
2023-02-28T10:13:34.432Z,3.33
2023-02-28T10:16:12.204Z,2.55
2023-02-28T10:18:48.174Z,3.78
2023-02-28T10:21:21.837Z,2.50
2023-02-28T10:23:50.298Z,4.38
2023-02-28T10:26:18.650Z,2.70
2023-02-28T10:28:46.517Z,2.20
2023-02-28T10:31:20.386Z,2.20
2023-02-28T10:33:48.455Z,2.20
2023-02-28T10:36:17.603Z,3.15
2023-02-28T10:38:46.173Z,2.95
2023-02-28T10:41:16.189Z,3.10
2023-02-28T10:43:46.310Z,2.40
2023-02-28T10:46:27.204Z,2.70
2023-02-28T10:49:04.733Z,3.10
2023-02-28T10:51:39.813Z,3.20
2023-02-28T10:54:15.633Z,2.40
2023-02-28T10:56:42.834Z,2.33
2023-02-28T10:59:09.876Z,2.58
2023-02-28T11:01:40.821Z,2.60
2023-02-28T11:04:31.067Z,2.20
2023-02-28T11:07:00.506Z,1.80
2023-02-28T11:11:57.739Z,1.73
2023-02-28T11:14:35.428Z,1.67
2023-02-28T11:17:24.535Z,2.85
2023-02-28T11:19:56.493Z,1.50
2023-02-28T11:22:29.951Z,1.10
2023-02-28T11:25:00.477Z,1.30
2023-02-28T11:27:46.255Z,1.48
2023-02-28T11:30:25.016Z,1.10
2023-02-28T11:32:52.280Z,1.48
2023-02-28T11:35:25.449Z,1.45
2023-02-28T11:37:56.362Z,2.85
2023-02-28T11:40:46.976Z,2.80
2023-02-28T11:43:26.104Z,2.03
2023-02-28T11:46:28.235Z,1.80
2023-02-28T11:49:26.472Z,1.83
2023-02-28T11:52:01.496Z,2.10
2023-02-28T11:54:49.903Z,2.80
2023-02-28T11:57:59.088Z,2.38
2023-02-28T12:01:04.147Z,2.20
2023-02-28T12:03:46.740Z,1.77
2023-02-28T12:06:22.974Z,2.10
2023-02-28T12:09:07.629Z,2.20
2023-02-28T12:11:42.845Z,2.00
2023-02-28T12:14:39.399Z,2.95
2023-02-28T12:17:18.043Z,2.42
2023-02-28T12:20:35.763Z,1.92
2023-02-28T12:23:55.187Z,2.30
2023-02-28T12:26:37.310Z,1.98
2023-02-28T12:29:29.873Z,1.90
2023-02-28T12:32:15.237Z,2.35
2023-02-28T12:34:50.595Z,2.03
2023-02-28T12:37:25.572Z,2.33
2023-02-28T12:40:00.741Z,1.85
2023-02-28T12:42:31.393Z,2.15
2023-02-28T12:45:13.033Z,2.10
2023-02-28T12:47:43.615Z,2.28
2023-02-28T12:50:13.337Z,2.85
2023-02-28T12:52:42.858Z,2.13
2023-02-28T12:55:15.833Z,2.40
2023-02-28T12:57:53.484Z,2.20
2023-02-28T13:00:23.484Z,1.98
2023-02-28T13:05:52.199Z,1.77
2023-02-28T13:08:41.799Z,2.08
2023-02-28T13:11:24.090Z,1.98
2023-02-28T13:13:58.973Z,1.85
2023-02-28T13:16:25.567Z,2.10
2023-02-28T13:18:53.617Z,2.10
2023-02-28T13:21:28.542Z,1.95
2023-02-28T13:23:59.265Z,2.80
2023-02-28T13:26:32.445Z,1.90
2023-02-28T13:29:01.984Z,2.40
2023-02-28T13:31:29.724Z,2.80
2023-02-28T13:34:00.286Z,2.50
2023-02-28T13:36:33.299Z,2.35
2023-02-28T13:39:05.107Z,3.13
2023-02-28T13:41:32.508Z,2.22
2023-02-28T13:44:02.907Z,2.35
2023-02-28T13:46:30.133Z,2.42
2023-02-28T13:48:57.056Z,2.70
2023-02-28T13:51:45.436Z,2.85
2023-02-28T13:54:31.578Z,2.83
2023-02-28T13:57:20.491Z,2.72
2023-02-28T13:59:51.418Z,3.30
2023-02-28T14:02:42.367Z,2.70
2023-02-28T14:05:22.815Z,2.80
2023-02-28T14:07:54.102Z,3.22
2023-02-28T14:10:33.871Z,2.67
2023-02-28T14:13:35.331Z,4.10
2023-02-28T14:16:04.890Z,3.30
2023-02-28T14:18:37.195Z,3.72
2023-02-28T14:21:26.720Z,3.20
2023-02-28T14:24:32.122Z,3.53
2023-02-28T14:27:12.995Z,3.00
2023-02-28T14:29:48.475Z,3.03
2023-02-28T14:32:36.433Z,2.67
2023-02-28T14:35:16.737Z,3.00
2023-02-28T14:37:44.705Z,2.58
2023-02-28T14:40:32.186Z,2.67
2023-02-28T14:43:01.363Z,2.38
2023-02-28T14:45:31.754Z,3.25
2023-02-28T14:48:00.194Z,3.75
2023-02-28T14:50:37.277Z,2.70
2023-02-28T14:53:07.158Z,3.00
2023-02-28T14:55:36.986Z,4.30
2023-02-28T14:58:26.620Z,3.00
2023-02-28T15:00:57.381Z,2.33
2023-02-28T15:03:32.674Z,2.50
2023-02-28T15:06:03.530Z,2.88
2023-02-28T15:08:32.756Z,2.35
2023-02-28T15:11:03.241Z,3.00
2023-02-28T15:13:48.615Z,3.33
2023-02-28T15:16:23.305Z,3.50
2023-02-28T15:18:53.819Z,3.67
2023-02-28T15:21:28.289Z,3.13
2023-02-28T15:24:00.129Z,3.13
2023-02-28T15:26:32.788Z,2.70
2023-02-28T15:29:06.576Z,2.70
2023-02-28T15:31:55.810Z,2.83
2023-02-28T15:34:42.297Z,3.22
2023-02-28T15:37:49.109Z,2.80
2023-02-28T15:40:23.433Z,2.38
2023-02-28T15:43:04.964Z,3.03
2023-02-28T15:45:39.700Z,2.83
2023-02-28T15:48:16.261Z,2.53
2023-02-28T15:50:43.741Z,3.08
2023-02-28T15:53:17.065Z,3.45
2023-02-28T15:55:45.240Z,2.67
2023-02-28T15:58:13.896Z,2.70
2023-02-28T16:00:46.572Z,2.78
2023-02-28T16:03:45.080Z,3.83
2023-02-28T16:06:18.305Z,3.47
2023-02-28T16:08:45.388Z,3.50
2023-02-28T16:11:12.482Z,2.72
2023-02-28T16:13:39.732Z,2.92
2023-02-28T16:16:06.637Z,3.70
2023-02-28T16:18:33.768Z,3.75
2023-02-28T16:21:00.319Z,4.55
2023-02-28T16:23:27.438Z,3.67
2023-02-28T16:25:54.182Z,3.92
2023-02-28T16:28:25.068Z,3.53
2023-02-28T16:30:54.955Z,3.05
2023-02-28T16:33:22.128Z,3.45
2023-02-28T16:35:48.603Z,2.80
2023-02-28T16:38:15.755Z,3.65
2023-02-28T16:40:42.341Z,2.83
2023-02-28T16:43:17.740Z,3.50
2023-02-28T16:45:44.491Z,2.90
2023-02-28T16:48:17.182Z,2.50
2023-02-28T16:50:47.157Z,2.92
2023-02-28T16:53:14.771Z,3.15
2023-02-28T16:55:42.467Z,3.25
2023-02-28T16:58:15.841Z,3.40
2023-02-28T17:00:42.730Z,2.90
2023-02-28T17:03:32.592Z,2.90
2023-02-28T17:06:00.944Z,2.72
2023-02-28T17:08:30.004Z,3.17
2023-02-28T17:10:56.713Z,4.43
2023-02-28T17:13:23.837Z,3.88
2023-02-28T17:15:50.876Z,4.50
2023-02-28T17:18:21.253Z,4.13
2023-02-28T17:20:48.595Z,4.18
2023-02-28T17:23:16.210Z,3.33
2023-02-28T17:25:50.124Z,3.90
2023-02-28T17:28:17.271Z,3.80
2023-02-28T17:30:47.981Z,3.45
2023-02-28T17:33:16.052Z,4.78
2023-02-28T17:35:42.683Z,4.53
2023-02-28T17:38:16.818Z,3.40
2023-02-28T17:40:44.090Z,3.05
2023-02-28T17:43:11.629Z,4.00
2023-02-28T17:45:38.302Z,3.85
2023-02-28T17:48:06.180Z,5.05
2023-02-28T17:50:33.845Z,5.82
2023-02-28T17:53:00.715Z,5.55
2023-02-28T17:55:27.677Z,5.47
2023-02-28T17:57:54.787Z,4.13
2023-02-28T18:00:24.912Z,4.60
2023-02-28T18:02:52.493Z,4.15
2023-02-28T18:05:19.137Z,4.07
2023-02-28T18:07:46.511Z,3.78
2023-02-28T18:10:20.013Z,3.90
2023-02-28T18:12:48.975Z,3.95
2023-02-28T18:15:17.525Z,4.00
2023-02-28T18:17:44.779Z,4.20
2023-02-28T18:20:12.203Z,3.75
2023-02-28T18:22:40.672Z,4.40
2023-02-28T18:25:09.373Z,4.32
2023-02-28T18:27:37.437Z,5.38
2023-02-28T18:30:05.139Z,5.10
2023-02-28T18:32:32.187Z,5.38
2023-02-28T18:34:58.737Z,5.60
2023-02-28T18:37:25.872Z,5.05
2023-02-28T18:39:52.418Z,5.18
2023-02-28T18:42:19.584Z,5.75
2023-02-28T18:44:46.132Z,5.28
2023-02-28T18:47:13.426Z,6.10
2023-02-28T18:49:39.938Z,7.22
2023-02-28T18:52:07.050Z,10.13
2023-02-28T18:54:33.611Z,8.63
2023-02-28T18:57:01.055Z,9.10
2023-02-28T18:59:27.709Z,7.75
2023-02-28T19:01:54.786Z,7.50
2023-02-28T19:04:21.476Z,7.72
2023-02-28T19:06:49.853Z,7.90
2023-02-28T19:09:16.403Z,7.07
2023-02-28T19:11:43.681Z,6.60
2023-02-28T19:14:10.245Z,6.40
2023-02-28T19:16:37.505Z,5.88
2023-02-28T19:19:04.070Z,6.53
2023-02-28T19:21:31.060Z,6.82
2023-02-28T19:23:58.245Z,6.32
2023-02-28T19:26:26.603Z,6.05
2023-02-28T19:28:53.869Z,6.50
2023-02-28T19:31:25.817Z,7.45
2023-02-28T19:33:53.514Z,8.68
2023-02-28T19:36:20.945Z,7.95
2023-02-28T19:38:48.655Z,7.43
2023-02-28T19:41:17.613Z,7.13
2023-02-28T19:43:44.817Z,7.75
2023-02-28T19:46:12.619Z,6.90
2023-02-28T19:48:40.194Z,6.53
2023-02-28T19:51:10.496Z,5.88
2023-02-28T19:53:39.201Z,6.50
2023-02-28T19:56:06.526Z,6.78
2023-02-28T19:58:34.213Z,6.60
2023-02-28T20:01:12.768Z,7.40
2023-02-28T20:03:40.112Z,6.35
2023-02-28T20:06:09.848Z,6.05
2023-02-28T20:08:38.535Z,6.88
2023-02-28T20:11:10.187Z,7.07
2023-02-28T20:13:37.932Z,6.25
2023-02-28T20:16:09.364Z,7.28
2023-02-28T20:18:39.907Z,7.53
2023-02-28T20:21:12.069Z,7.65
2023-02-28T20:23:40.044Z,8.20
2023-02-28T20:26:07.786Z,6.97
2023-02-28T20:28:34.975Z,7.47
2023-02-28T20:31:01.966Z,6.85
2023-02-28T20:33:28.944Z,7.18
2023-02-28T20:36:02.684Z,7.47
2023-02-28T20:38:29.375Z,6.45
2023-02-28T20:41:00.250Z,6.28
2023-02-28T20:43:27.408Z,6.97
2023-02-28T20:45:58.566Z,7.00
2023-02-28T20:48:25.731Z,6.82
2023-02-28T20:50:55.060Z,7.05
2023-02-28T20:53:24.535Z,7.72
2023-02-28T20:56:18.985Z,7.43
2023-02-28T20:58:47.916Z,7.35
2023-02-28T21:01:18.598Z,6.88
2023-02-28T21:03:49.978Z,6.13
2023-02-28T21:06:20.319Z,6.35
2023-02-28T21:08:47.071Z,6.25
2023-02-28T21:11:17.292Z,6.90
2023-02-28T21:13:45.132Z,7.28
2023-02-28T21:16:17.738Z,6.85
2023-02-28T21:18:45.879Z,6.78
2023-02-28T21:21:15.761Z,6.13
2023-02-28T21:23:45.157Z,6.22
2023-02-28T21:28:44.167Z,6.78
